createdAt,value
2017-05-15T00:00:09.809Z,56.51
2017-05-15T00:01:09.841Z,56.61
2017-05-15T00:02:10.063Z,56.71
2017-05-15T00:03:09.896Z,56.51
2017-05-15T00:04:09.916Z,56.41
2017-05-15T00:05:09.949Z,56.51
2017-05-15T00:06:09.977Z,56.61
2017-05-15T00:07:09.946Z,56.51
2017-05-15T00:08:10.035Z,56.61
2017-05-15T00:09:09.749Z,56.61
2017-05-15T00:10:09.778Z,56.51
2017-05-15T00:11:10.112Z,56.61
2017-05-15T00:12:10.342Z,56.41
2017-05-15T00:13:10.171Z,56.41
2017-05-15T00:14:10.200Z,56.51
2017-05-15T00:15:10.229Z,56.51
2017-05-15T00:16:10.253Z,56.61
2017-05-15T00:17:10.526Z,56.61
2017-05-15T00:18:10.311Z,56.22
2017-05-15T00:19:10.339Z,56.51
2017-05-15T00:20:10.365Z,56.51
2017-05-15T00:21:10.388Z,56.51
2017-05-15T00:22:10.613Z,56.41
2017-05-15T00:23:10.451Z,56.61
2017-05-15T00:24:10.476Z,56.71
2017-05-15T00:25:10.190Z,56.51
2017-05-15T00:26:10.532Z,56.61
2017-05-15T00:27:10.813Z,56.61
2017-05-15T00:28:10.590Z,56.99
2017-05-15T00:29:10.616Z,56.41
2017-05-15T00:30:10.644Z,56.61
2017-05-15T00:31:10.668Z,56.41
2017-05-15T00:32:10.695Z,56.61
2017-05-15T00:33:10.727Z,56.61
2017-05-15T00:34:10.440Z,56.51
2017-05-15T00:35:10.780Z,56.51
2017-05-15T00:36:10.809Z,56.22
2017-05-15T00:37:10.522Z,56.71
2017-05-15T00:38:10.867Z,56.51
2017-05-15T00:39:10.891Z,56.61
2017-05-15T00:40:10.608Z,56.41
2017-05-15T00:41:10.949Z,56.61
2017-05-15T00:42:10.969Z,56.32
2017-05-15T00:43:10.998Z,56.51
2017-05-15T00:44:11.037Z,56.51
2017-05-15T00:45:11.061Z,56.13
2017-05-15T00:46:11.084Z,56.51
2017-05-15T00:47:11.110Z,56.51
2017-05-15T00:48:11.142Z,56.71
2017-05-15T00:49:11.168Z,56.61
2017-05-15T00:50:11.194Z,56.22
2017-05-15T00:51:10.911Z,56.61
2017-05-15T00:52:10.937Z,56.22
2017-05-15T00:53:11.283Z,55.93
2017-05-15T00:54:10.991Z,56.32
2017-05-15T00:55:11.340Z,56.13
2017-05-15T00:56:11.364Z,56.03
2017-05-15T00:57:11.390Z,56.13
2017-05-15T00:58:11.418Z,55.83
2017-05-15T00:59:11.447Z,55.83
2017-05-15T01:00:11.475Z,55.93
2017-05-15T01:01:11.502Z,55.83
2017-05-15T01:02:11.526Z,55.93
2017-05-15T01:03:11.553Z,55.74
2017-05-15T01:04:11.269Z,55.93
2017-05-15T01:05:11.298Z,56.13
2017-05-15T01:06:11.329Z,55.83
2017-05-15T01:07:11.660Z,55.93
2017-05-15T01:08:11.947Z,55.93
2017-05-15T01:09:11.727Z,55.74
2017-05-15T01:10:11.749Z,55.93
2017-05-15T01:11:11.776Z,55.93
2017-05-15T01:12:11.800Z,55.93
2017-05-15T01:13:12.082Z,56.13
2017-05-15T01:14:11.546Z,56.32
2017-05-15T01:15:11.886Z,56.13
2017-05-15T01:16:11.605Z,55.93
2017-05-15T01:17:11.942Z,55.93
2017-05-15T01:18:11.910Z,55.81
2017-05-15T01:19:11.683Z,56.03
2017-05-15T01:20:12.023Z,55.93
2017-05-15T01:21:12.046Z,55.81
2017-05-15T01:22:12.076Z,55.93
2017-05-15T01:23:12.312Z,56.58
2017-05-15T01:24:12.138Z,56.51
2017-05-15T01:25:12.167Z,56.1
2017-05-15T01:26:12.185Z,55.9
2017-05-15T01:27:12.217Z,55.71
2017-05-15T01:28:12.449Z,55.83
2017-05-15T01:29:12.275Z,56.1
2017-05-15T01:30:12.303Z,55.9
2017-05-15T01:31:12.330Z,56
2017-05-15T01:32:12.356Z,55.81
2017-05-15T01:33:12.637Z,56.29
2017-05-15T01:34:12.417Z,56.32
2017-05-15T01:35:12.440Z,56.1
2017-05-15T01:36:12.463Z,56.03
2017-05-15T01:37:12.180Z,56.22
2017-05-15T01:38:12.725Z,55.52
2017-05-15T01:39:12.238Z,55.71
2017-05-15T01:40:12.266Z,55.93
2017-05-15T01:41:12.605Z,55.81
2017-05-15T01:42:12.629Z,55.9
2017-05-15T01:43:12.912Z,55.71
2017-05-15T01:44:12.690Z,56.22
2017-05-15T01:45:12.722Z,56
2017-05-15T01:46:12.743Z,56.29
2017-05-15T01:47:12.768Z,56.2
2017-05-15T01:48:12.489Z,55.9
2017-05-15T01:49:12.830Z,55.71
2017-05-15T01:50:12.855Z,55.71
2017-05-15T01:51:12.877Z,55.62
2017-05-15T01:52:12.596Z,56.1
2017-05-15T01:53:12.941Z,56.1
2017-05-15T01:54:12.966Z,55.9
2017-05-15T01:55:12.682Z,56.1
2017-05-15T01:56:12.711Z,56.2
2017-05-15T01:57:12.729Z,56
2017-05-15T01:58:13.077Z,56.2
2017-05-15T01:59:13.110Z,56
2017-05-15T02:00:12.826Z,55.71
2017-05-15T02:01:13.158Z,56
2017-05-15T02:02:12.872Z,56.1
2017-05-15T02:03:13.213Z,55.81
2017-05-15T02:04:13.242Z,55.9
2017-05-15T02:05:13.269Z,56
2017-05-15T02:06:13.290Z,56
2017-05-15T02:07:13.324Z,56.1
2017-05-15T02:08:13.353Z,56.1
2017-05-15T02:09:13.422Z,55.71
2017-05-15T02:10:13.407Z,56
2017-05-15T02:11:13.436Z,56.1
2017-05-15T02:12:13.459Z,56.1
2017-05-15T02:13:13.488Z,55.81
2017-05-15T02:14:13.518Z,56.1
2017-05-15T02:15:13.542Z,56
2017-05-15T02:16:13.258Z,56.1
2017-05-15T02:17:13.600Z,56
2017-05-15T02:18:13.313Z,56.1
2017-05-15T02:19:13.653Z,55.71
2017-05-15T02:20:13.682Z,56.1
2017-05-15T02:21:13.711Z,56.39
2017-05-15T02:22:13.734Z,55.9
2017-05-15T02:23:13.764Z,56.1
2017-05-15T02:24:13.792Z,56.1
2017-05-15T02:25:13.819Z,56
2017-05-15T02:26:13.535Z,55.9
2017-05-15T02:27:13.881Z,56.48
2017-05-15T02:28:13.901Z,55.9
2017-05-15T02:29:13.930Z,56.39
2017-05-15T02:30:13.957Z,56.1
2017-05-15T02:31:13.671Z,55.9
2017-05-15T02:32:14.011Z,55.71
2017-05-15T02:33:14.041Z,55.81
2017-05-15T02:34:14.067Z,55.71
2017-05-15T02:35:14.090Z,56
2017-05-15T02:36:14.123Z,55.81
2017-05-15T02:37:14.147Z,55.71
2017-05-15T02:38:14.172Z,55.62
2017-05-15T02:39:13.893Z,55.9
2017-05-15T02:40:14.225Z,56.1
2017-05-15T02:41:14.262Z,56.68
2017-05-15T02:42:13.966Z,56.39
2017-05-15T02:43:14.318Z,56.48
2017-05-15T02:44:14.342Z,56.2
2017-05-15T02:45:14.370Z,56.39
2017-05-15T02:46:14.395Z,56.68
2017-05-15T02:47:14.424Z,55.9
2017-05-15T02:48:14.144Z,55.9
2017-05-15T02:49:14.421Z,55.9
2017-05-15T02:50:14.506Z,55.52
2017-05-15T02:51:14.535Z,55.71
2017-05-15T02:52:14.563Z,55.81
2017-05-15T02:53:14.276Z,55.71
2017-05-15T02:54:14.864Z,55.9
2017-05-15T02:55:14.645Z,55.62
2017-05-15T02:56:14.670Z,56.2
2017-05-15T02:57:14.695Z,55.9
2017-05-15T02:58:14.732Z,56
2017-05-15T02:59:14.665Z,56
2017-05-15T03:00:14.469Z,55.9
2017-05-15T03:01:14.498Z,56.1
2017-05-15T03:02:14.527Z,56
2017-05-15T03:03:14.868Z,56.39
2017-05-15T03:04:15.145Z,55.9
2017-05-15T03:05:14.922Z,56.1
2017-05-15T03:06:14.947Z,56.58
2017-05-15T03:07:14.975Z,56.39
2017-05-15T03:08:14.996Z,56.39
2017-05-15T03:09:14.969Z,56.1
2017-05-15T03:10:15.058Z,55.81
2017-05-15T03:11:15.087Z,56.68
2017-05-15T03:12:15.110Z,56.39
2017-05-15T03:13:15.139Z,56.39
2017-05-15T03:14:15.055Z,56.1
2017-05-15T03:15:15.195Z,55.9
2017-05-15T03:16:15.222Z,56.1
2017-05-15T03:17:15.246Z,55.71
2017-05-15T03:18:15.267Z,55.9
2017-05-15T03:19:15.243Z,55.9
2017-05-15T03:20:15.331Z,56
2017-05-15T03:21:15.361Z,56.39
2017-05-15T03:22:15.385Z,56
2017-05-15T03:23:15.411Z,56.1
2017-05-15T03:24:15.692Z,56.68
2017-05-15T03:25:15.469Z,56.29
2017-05-15T03:26:15.497Z,56.77
2017-05-15T03:27:15.528Z,55.81
2017-05-15T03:28:15.234Z,55.9
2017-05-15T03:29:15.832Z,56.1
2017-05-15T03:30:15.606Z,55.9
2017-05-15T03:31:15.636Z,55.81
2017-05-15T03:32:15.658Z,55.81
2017-05-15T03:33:15.375Z,55.81
2017-05-15T03:34:15.403Z,56
2017-05-15T03:35:15.429Z,55.9
2017-05-15T03:36:15.770Z,55.81
2017-05-15T03:37:15.798Z,56
2017-05-15T03:38:15.826Z,55.81
2017-05-15T03:39:15.857Z,55.81
2017-05-15T03:40:15.876Z,55.9
2017-05-15T03:41:15.906Z,56.2
2017-05-15T03:42:15.931Z,55.81
2017-05-15T03:43:15.960Z,55.9
2017-05-15T03:44:15.988Z,55.9
2017-05-15T03:45:16.018Z,55.9
2017-05-15T03:46:16.046Z,55.81
2017-05-15T03:47:16.070Z,55.9
2017-05-15T03:48:16.096Z,55.9
2017-05-15T03:49:16.128Z,56
2017-05-15T03:50:16.154Z,55.9
2017-05-15T03:51:16.182Z,56.1
2017-05-15T03:52:16.205Z,55.9
2017-05-15T03:53:16.231Z,55.9
2017-05-15T03:54:16.264Z,55.9
2017-05-15T03:55:16.297Z,56
2017-05-15T03:56:16.005Z,55.9
2017-05-15T03:57:16.348Z,55.81
2017-05-15T03:58:16.057Z,55.81
2017-05-15T03:59:16.092Z,55.71
2017-05-15T04:00:16.432Z,55.81
2017-05-15T04:01:16.453Z,55.9
2017-05-15T04:02:16.478Z,55.81
2017-05-15T04:03:16.511Z,55.62
2017-05-15T04:04:16.224Z,56.1
2017-05-15T04:05:16.252Z,55.52
2017-05-15T04:06:16.281Z,55.9
2017-05-15T04:07:16.306Z,55.81
2017-05-15T04:08:16.648Z,55.81
2017-05-15T04:09:16.733Z,55.71
2017-05-15T04:10:16.700Z,56
2017-05-15T04:11:16.730Z,56
2017-05-15T04:12:16.745Z,56
2017-05-15T04:13:16.471Z,56
2017-05-15T04:14:16.504Z,55.81
2017-05-15T04:15:16.521Z,55.9
2017-05-15T04:16:16.866Z,56.29
2017-05-15T04:17:16.894Z,55.81
2017-05-15T04:18:16.607Z,55.71
2017-05-15T04:19:16.948Z,56
2017-05-15T04:20:17.173Z,56.1
2017-05-15T04:21:17.005Z,56
2017-05-15T04:22:17.026Z,56.2
2017-05-15T04:23:17.062Z,56
2017-05-15T04:24:17.081Z,56.1
2017-05-15T04:25:17.051Z,56.1
2017-05-15T04:26:17.138Z,55.9
2017-05-15T04:27:17.165Z,55.71
2017-05-15T04:28:17.189Z,55.81
2017-05-15T04:29:17.224Z,55.81
2017-05-15T04:30:17.499Z,55.71
2017-05-15T04:31:17.277Z,55.71
2017-05-15T04:32:17.302Z,55.71
2017-05-15T04:33:17.339Z,55.81
2017-05-15T04:34:17.356Z,55.81
2017-05-15T04:35:17.328Z,55.62
2017-05-15T04:36:17.413Z,55.62
2017-05-15T04:37:17.437Z,55.33
2017-05-15T04:38:17.471Z,55.81
2017-05-15T04:39:17.179Z,55.9
2017-05-15T04:40:17.775Z,55.33
2017-05-15T04:41:17.237Z,55.33
2017-05-15T04:42:17.578Z,55.9
2017-05-15T04:43:17.606Z,55.81
2017-05-15T04:44:17.627Z,55.42
2017-05-15T04:45:17.599Z,55.81
2017-05-15T04:46:17.688Z,55.62
2017-05-15T04:47:17.713Z,55.71
2017-05-15T04:48:17.742Z,55.62
2017-05-15T04:49:17.447Z,55.52
2017-05-15T04:50:18.047Z,55.33
2017-05-15T04:51:17.825Z,55.52
2017-05-15T04:52:17.533Z,55.62
2017-05-15T04:53:17.902Z,55.52
2017-05-15T04:54:17.901Z,55.52
2017-05-15T04:55:17.616Z,55.52
2017-05-15T04:56:17.965Z,55.42
2017-05-15T04:57:17.989Z,55.42
2017-05-15T04:58:18.007Z,55.71
2017-05-15T04:59:18.039Z,55.81
2017-05-15T05:00:18.068Z,55.71
2017-05-15T05:01:18.095Z,55.81
2017-05-15T05:02:18.125Z,55.71
2017-05-15T05:03:18.151Z,56.1
2017-05-15T05:04:18.179Z,55.9
2017-05-15T05:05:18.207Z,55.52
2017-05-15T05:06:18.232Z,56.1
2017-05-15T05:07:17.945Z,56
2017-05-15T05:08:18.310Z,56
2017-05-15T05:09:18.315Z,55.9
2017-05-15T05:10:18.345Z,55.9
2017-05-15T05:11:18.373Z,55.71
2017-05-15T05:12:18.397Z,54.94
2017-05-15T05:13:18.425Z,54.07
2017-05-15T05:14:18.454Z,54.07
2017-05-15T05:15:18.519Z,53.78
2017-05-15T05:16:18.510Z,53.59
2017-05-15T05:17:18.533Z,53.59
2017-05-15T05:18:18.561Z,53.2
2017-05-15T05:19:18.603Z,53.3
2017-05-15T05:20:18.607Z,53.2
2017-05-15T05:21:18.641Z,53.3
2017-05-15T05:22:18.673Z,52.72
2017-05-15T05:23:18.387Z,52.62
2017-05-15T05:24:18.722Z,52.72
2017-05-15T05:25:18.756Z,52.33
2017-05-15T05:26:18.472Z,52.53
2017-05-15T05:27:18.808Z,52.04
2017-05-15T05:28:18.526Z,52.23
2017-05-15T05:29:18.549Z,52.23
2017-05-15T05:30:18.575Z,52.33
2017-05-15T05:31:18.919Z,52.23
2017-05-15T05:32:18.948Z,52.23
2017-05-15T05:33:18.972Z,52.33
2017-05-15T05:34:19.006Z,52.43
2017-05-15T05:35:18.711Z,52.23
2017-05-15T05:36:19.056Z,52.14
2017-05-15T05:37:19.080Z,52.43
2017-05-15T05:38:19.109Z,51.92
2017-05-15T05:39:18.827Z,51.63
2017-05-15T05:40:19.155Z,52.01
2017-05-15T05:41:19.183Z,52.04
2017-05-15T05:42:19.230Z,53.2
2017-05-15T05:43:19.239Z,53.69
2017-05-15T05:44:19.300Z,53.78
2017-05-15T05:45:19.300Z,53.88
2017-05-15T05:46:19.323Z,53.88
2017-05-15T05:47:19.357Z,53.69
2017-05-15T05:48:19.384Z,53.59
2017-05-15T05:49:19.410Z,53.59
2017-05-15T05:50:19.118Z,53.49
2017-05-15T05:51:19.150Z,53.59
2017-05-15T05:52:19.179Z,53.69
2017-05-15T05:53:19.522Z,53.88
2017-05-15T05:54:19.544Z,54.27
2017-05-15T05:55:19.569Z,53.78
2017-05-15T05:56:19.602Z,53.49
2017-05-15T05:57:19.636Z,53.59
2017-05-15T05:58:19.656Z,53.59
2017-05-15T05:59:19.685Z,53.69
2017-05-15T06:00:19.706Z,53.49
2017-05-15T06:01:19.738Z,53.59
2017-05-15T06:02:19.768Z,53.49
2017-05-15T06:03:19.796Z,53.69
2017-05-15T06:04:19.820Z,53.88
2017-05-15T06:05:19.845Z,53.49
2017-05-15T06:06:19.879Z,53.11
2017-05-15T06:07:19.902Z,53.03
2017-05-15T06:08:19.933Z,53.01
2017-05-15T06:09:19.964Z,53.11
2017-05-15T06:10:19.981Z,53.11
2017-05-15T06:11:19.703Z,52.81
2017-05-15T06:12:19.735Z,52.91
2017-05-15T06:13:20.068Z,53.3
2017-05-15T06:14:20.101Z,53.3
2017-05-15T06:15:20.121Z,53.33
2017-05-15T06:16:19.840Z,53.49
2017-05-15T06:17:20.178Z,53.2
2017-05-15T06:18:20.212Z,53.11
2017-05-15T06:19:20.232Z,53.3
2017-05-15T06:20:20.259Z,53.2
2017-05-15T06:21:19.978Z,53.2
2017-05-15T06:22:20.319Z,53.11
2017-05-15T06:23:20.348Z,53.23
2017-05-15T06:24:20.061Z,53.01
2017-05-15T06:25:20.395Z,53.13
2017-05-15T06:26:20.113Z,53.11
2017-05-15T06:27:20.455Z,53.11
2017-05-15T06:28:20.491Z,53.11
2017-05-15T06:29:20.509Z,53.2
2017-05-15T06:30:20.533Z,53.11
2017-05-15T06:31:20.254Z,52.91
2017-05-15T06:32:20.590Z,53.23
2017-05-15T06:33:20.618Z,53.11
2017-05-15T06:34:20.649Z,53.2
2017-05-15T06:35:20.673Z,53.23
2017-05-15T06:36:20.698Z,53.13
2017-05-15T06:37:20.731Z,53.11
2017-05-15T06:38:20.452Z,52.91
2017-05-15T06:39:20.783Z,52.53
2017-05-15T06:40:20.808Z,52.72
2017-05-15T06:41:20.843Z,52.75
2017-05-15T06:42:20.558Z,52.81
2017-05-15T06:43:20.894Z,52.91
2017-05-15T06:44:20.924Z,52.62
2017-05-15T06:45:20.949Z,52.62
2017-05-15T06:46:20.667Z,52.53
2017-05-15T06:47:20.695Z,52.62
2017-05-15T06:48:21.040Z,52.94
2017-05-15T06:49:21.058Z,52.72
2017-05-15T06:50:21.090Z,52.72
2017-05-15T06:51:20.797Z,52.45
2017-05-15T06:52:21.141Z,52.75
2017-05-15T06:53:21.170Z,52.84
2017-05-15T06:54:21.199Z,53.2
2017-05-15T06:55:21.224Z,52.84
2017-05-15T06:56:21.248Z,52.94
2017-05-15T06:57:21.281Z,52.53
2017-05-15T06:58:21.315Z,52.94
2017-05-15T06:59:21.339Z,52.17
2017-05-15T07:00:21.365Z,52.84
2017-05-15T07:01:21.082Z,52.45
2017-05-15T07:02:21.109Z,51.68
2017-05-15T07:03:21.447Z,51.78
2017-05-15T07:04:21.164Z,51.68
2017-05-15T07:05:21.503Z,51.68
2017-05-15T07:06:21.530Z,51.87
2017-05-15T07:07:21.559Z,52.36
2017-05-15T07:08:21.587Z,51.78
2017-05-15T07:09:21.614Z,51.01
2017-05-15T07:10:21.641Z,51.49
2017-05-15T07:11:21.669Z,51.68
2017-05-15T07:12:21.696Z,51.97
2017-05-15T07:13:21.725Z,51.68
2017-05-15T07:14:21.750Z,51.68
2017-05-15T07:15:21.779Z,51.87
2017-05-15T07:16:21.808Z,51.97
2017-05-15T07:17:21.837Z,51.68
2017-05-15T07:18:21.863Z,51.59
2017-05-15T07:19:21.891Z,51.78
2017-05-15T07:20:21.919Z,52.26
2017-05-15T07:21:21.949Z,52.07
2017-05-15T07:22:21.974Z,51.78
2017-05-15T07:23:22.002Z,51.87
2017-05-15T07:24:22.031Z,51.39
2017-05-15T07:25:22.059Z,51.1
2017-05-15T07:26:22.086Z,50.43
2017-05-15T07:27:22.109Z,51.2
2017-05-15T07:28:22.141Z,51.68
2017-05-15T07:29:21.851Z,51.49
2017-05-15T07:30:22.196Z,52.17
2017-05-15T07:31:22.228Z,51.59
2017-05-15T07:32:21.944Z,51.68
2017-05-15T07:33:21.965Z,51.78
2017-05-15T07:34:21.994Z,51.78
2017-05-15T07:35:22.335Z,51.78
2017-05-15T07:36:22.363Z,51.49
2017-05-15T07:37:22.389Z,51.39
2017-05-15T07:38:22.418Z,51.39
2017-05-15T07:39:22.447Z,51.2
2017-05-15T07:40:22.471Z,51.49
2017-05-15T07:41:22.497Z,51.2
2017-05-15T07:42:22.528Z,51.39
2017-05-15T07:43:22.557Z,51.2
2017-05-15T07:44:22.275Z,51.39
2017-05-15T07:45:22.298Z,51.2
2017-05-15T07:46:22.690Z,51.29
2017-05-15T07:47:22.664Z,51.59
2017-05-15T07:48:22.698Z,51.51
2017-05-15T07:49:22.726Z,51.2
2017-05-15T07:50:22.799Z,51.49
2017-05-15T07:51:22.780Z,51.29
2017-05-15T07:52:22.499Z,51.49
2017-05-15T07:53:22.837Z,51.2
2017-05-15T07:54:22.861Z,51.29
2017-05-15T07:55:22.887Z,51.39
2017-05-15T07:56:22.607Z,50.81
2017-05-15T07:57:22.635Z,51.2
2017-05-15T07:58:22.661Z,51.49
2017-05-15T07:59:23.015Z,51.39
2017-05-15T08:00:23.038Z,51.2
2017-05-15T08:01:23.059Z,51.29
2017-05-15T08:02:23.088Z,51.49
2017-05-15T08:03:23.124Z,51.97
2017-05-15T08:04:22.829Z,52
2017-05-15T08:05:23.162Z,51.81
2017-05-15T08:06:22.888Z,51.9
2017-05-15T08:07:23.232Z,51.9
2017-05-15T08:08:23.252Z,51.71
2017-05-15T08:09:23.280Z,51.81
2017-05-15T08:10:23.005Z,51.23
2017-05-15T08:11:23.339Z,51.71
2017-05-15T08:12:23.369Z,51.32
2017-05-15T08:13:23.393Z,50.35
2017-05-15T08:14:23.430Z,50.16
2017-05-15T08:15:23.450Z,49.77
2017-05-15T08:16:23.474Z,50.45
2017-05-15T08:17:23.191Z,50.07
2017-05-15T08:18:23.528Z,50.16
2017-05-15T08:19:23.568Z,49.77
2017-05-15T08:20:23.277Z,50.07
2017-05-15T08:21:23.302Z,49.68
2017-05-15T08:22:23.642Z,50.55
2017-05-15T08:23:23.676Z,49.49
2017-05-15T08:24:23.701Z,49.49
2017-05-15T08:25:23.729Z,49.77
2017-05-15T08:26:23.754Z,50.16
2017-05-15T08:27:23.778Z,50.16
2017-05-15T08:28:23.812Z,49.39
2017-05-15T08:29:23.840Z,49.58
2017-05-15T08:30:23.870Z,50.35
2017-05-15T08:31:23.894Z,49.68
2017-05-15T08:32:23.927Z,49.68
2017-05-15T08:33:23.952Z,49.19
2017-05-15T08:34:23.976Z,48.9
2017-05-15T08:35:23.694Z,49.29
2017-05-15T08:36:24.029Z,49.19
2017-05-15T08:37:24.062Z,48.81
2017-05-15T08:38:24.091Z,48.81
2017-05-15T08:39:23.807Z,48.23
2017-05-15T08:40:24.149Z,48.61
2017-05-15T08:41:24.426Z,49.1
2017-05-15T08:42:24.202Z,49.1
2017-05-15T08:43:24.228Z,49.19
2017-05-15T08:44:24.259Z,49.77
2017-05-15T08:45:24.289Z,49.58
2017-05-15T08:46:24.567Z,49.1
2017-05-15T08:47:24.342Z,48.81
2017-05-15T08:48:24.374Z,48.03
2017-05-15T08:49:24.400Z,49.1
2017-05-15T08:50:24.424Z,49
2017-05-15T08:51:24.437Z,49
2017-05-15T08:52:24.485Z,48.52
2017-05-15T08:53:24.196Z,49.19
2017-05-15T08:54:24.225Z,48.52
2017-05-15T08:55:24.257Z,47.74
2017-05-15T08:56:24.852Z,48.52
2017-05-15T08:57:24.618Z,47.55
2017-05-15T08:58:24.656Z,48.61
2017-05-15T08:59:24.675Z,48.61
2017-05-15T09:00:24.708Z,49.1
2017-05-15T09:01:24.932Z,49.19
2017-05-15T09:02:24.766Z,49
2017-05-15T09:03:24.789Z,48.9
2017-05-15T09:04:24.508Z,49
2017-05-15T09:05:24.847Z,48.74
2017-05-15T09:06:24.876Z,49.02
2017-05-15T09:07:24.901Z,48.74
2017-05-15T09:08:24.618Z,48.44
2017-05-15T09:09:24.959Z,48.44
2017-05-15T09:10:24.988Z,48.16
2017-05-15T09:11:25.017Z,48.44
2017-05-15T09:12:24.738Z,48.06
2017-05-15T09:13:24.762Z,47.45
2017-05-15T09:14:24.782Z,47.48
2017-05-15T09:15:25.130Z,47.84
2017-05-15T09:16:25.157Z,46.88
2017-05-15T09:17:25.186Z,47.09
2017-05-15T09:18:24.902Z,46.61
2017-05-15T09:19:25.243Z,45.64
2017-05-15T09:20:25.272Z,45.45
2017-05-15T09:21:25.300Z,45.35
2017-05-15T09:22:25.047Z,44.29
2017-05-15T09:23:25.358Z,44.77
2017-05-15T09:24:25.070Z,44.57
2017-05-15T09:25:25.411Z,44.48
2017-05-15T09:26:25.132Z,44.48
2017-05-15T09:27:25.476Z,43.99
2017-05-15T09:28:25.505Z,43.23
2017-05-15T09:29:25.534Z,43.51
2017-05-15T09:30:25.552Z,44.57
2017-05-15T09:31:25.581Z,44.87
2017-05-15T09:32:25.610Z,44.77
2017-05-15T09:33:25.637Z,44.09
2017-05-15T09:34:25.366Z,43.13
2017-05-15T09:35:25.694Z,42.74
2017-05-15T09:36:25.723Z,43.03
2017-05-15T09:37:25.745Z,42.35
2017-05-15T09:38:25.773Z,43.03
2017-05-15T09:39:25.805Z,42.35
2017-05-15T09:40:25.525Z,41.97
2017-05-15T09:41:25.553Z,41.39
2017-05-15T09:42:25.575Z,41.09
2017-05-15T09:43:25.610Z,41.67
2017-05-15T09:44:25.946Z,41.48
2017-05-15T09:45:25.974Z,41.39
2017-05-15T09:46:26.004Z,42.35
2017-05-15T09:47:26.036Z,42.35
2017-05-15T09:48:25.746Z,42.83
2017-05-15T09:49:26.093Z,42.74
2017-05-15T09:50:26.118Z,42.83
2017-05-15T09:51:26.138Z,42.45
2017-05-15T09:52:25.860Z,42.74
2017-05-15T09:53:26.198Z,42.93
2017-05-15T09:54:26.229Z,43.23
2017-05-15T09:55:25.948Z,43.32
2017-05-15T09:56:25.973Z,42.93
2017-05-15T09:57:26.313Z,42.74
2017-05-15T09:58:26.032Z,43.15
2017-05-15T09:59:26.377Z,42.66
2017-05-15T10:00:26.085Z,43.13
2017-05-15T10:01:26.419Z,42.96
2017-05-15T10:02:26.455Z,43.34
2017-05-15T10:03:26.485Z,42.28
2017-05-15T10:04:26.521Z,42.45
2017-05-15T10:05:26.540Z,42.47
2017-05-15T10:06:26.604Z,41.41
2017-05-15T10:07:26.595Z,41.5
2017-05-15T10:08:26.628Z,41.99
2017-05-15T10:09:26.656Z,41.7
2017-05-15T10:10:26.724Z,41.21
2017-05-15T10:11:26.707Z,41.5
2017-05-15T10:12:26.736Z,41.7
2017-05-15T10:13:26.768Z,41.31
2017-05-15T10:14:26.797Z,41.5
2017-05-15T10:15:26.825Z,41.31
2017-05-15T10:16:26.854Z,41.79
2017-05-15T10:17:26.771Z,41.6
2017-05-15T10:18:26.909Z,41.7
2017-05-15T10:19:26.941Z,42.28
2017-05-15T10:20:26.965Z,42.18
2017-05-15T10:21:26.683Z,42.18
2017-05-15T10:22:27.275Z,42.28
2017-05-15T10:23:27.052Z,42.08
2017-05-15T10:24:26.765Z,41.79
2017-05-15T10:25:26.800Z,41.79
2017-05-15T10:26:27.139Z,40.92
2017-05-15T10:27:27.458Z,41.11
2017-05-15T10:28:27.195Z,41.6
2017-05-15T10:29:26.913Z,40.34
2017-05-15T10:30:27.253Z,41.02
2017-05-15T10:31:27.278Z,39.95
2017-05-15T10:32:27.198Z,40.05
2017-05-15T10:33:27.339Z,40.63
2017-05-15T10:34:27.366Z,41.21
2017-05-15T10:35:27.391Z,41.21
2017-05-15T10:36:27.105Z,41.79
2017-05-15T10:37:27.646Z,40.73
2017-05-15T10:38:27.170Z,40.05
2017-05-15T10:39:27.511Z,41.21
2017-05-15T10:40:27.537Z,40.92
2017-05-15T10:41:27.557Z,40.63
2017-05-15T10:42:27.794Z,41.02
2017-05-15T10:43:27.306Z,40.44
2017-05-15T10:44:27.340Z,41.02
2017-05-15T10:45:27.680Z,41.31
2017-05-15T10:46:27.701Z,41.11
2017-05-15T10:47:27.938Z,41.11
2017-05-15T10:48:27.446Z,40.92
2017-05-15T10:49:27.479Z,40.73
2017-05-15T10:50:27.824Z,40.83
2017-05-15T10:51:27.854Z,40.83
2017-05-15T10:52:27.877Z,40.63
2017-05-15T10:53:27.912Z,40.73
2017-05-15T10:54:27.623Z,40.15
2017-05-15T10:55:27.652Z,41.02
2017-05-15T10:56:27.685Z,39.95
2017-05-15T10:57:28.025Z,40.25
2017-05-15T10:58:28.059Z,40.15
2017-05-15T10:59:28.083Z,40.15
2017-05-15T11:00:28.108Z,39.76
2017-05-15T11:01:28.136Z,39.86
2017-05-15T11:02:28.165Z,40.05
2017-05-15T11:03:27.878Z,39.76
2017-05-15T11:04:27.912Z,40.15
2017-05-15T11:05:28.252Z,39.86
2017-05-15T11:06:28.281Z,40.17
2017-05-15T11:07:28.321Z,40.36
2017-05-15T11:08:28.027Z,39.86
2017-05-15T11:09:28.054Z,39.47
2017-05-15T11:10:28.395Z,39.95
2017-05-15T11:11:28.428Z,40.36
2017-05-15T11:12:28.140Z,40.05
2017-05-15T11:13:28.479Z,40.36
2017-05-15T11:14:28.511Z,40.75
2017-05-15T11:15:28.536Z,40.94
2017-05-15T11:16:28.568Z,40.84
2017-05-15T11:17:28.597Z,40.94
2017-05-15T11:18:28.634Z,40.84
2017-05-15T11:19:28.649Z,40.65
2017-05-15T11:20:28.684Z,40.75
2017-05-15T11:21:28.712Z,40.65
2017-05-15T11:22:28.742Z,40.75
2017-05-15T11:23:28.771Z,40.84
2017-05-15T11:24:28.795Z,40.84
2017-05-15T11:25:28.516Z,40.46
2017-05-15T11:26:28.858Z,40.84
2017-05-15T11:27:28.887Z,39.88
2017-05-15T11:28:29.114Z,39.97
2017-05-15T11:29:28.942Z,40.17
2017-05-15T11:30:28.658Z,39.78
2017-05-15T11:31:29.004Z,39.78
2017-05-15T11:32:28.721Z,39.69
2017-05-15T11:33:29.258Z,39.01
2017-05-15T11:34:29.086Z,38.91
2017-05-15T11:35:28.805Z,38.73
2017-05-15T11:36:29.143Z,38.54
2017-05-15T11:37:28.860Z,38.15
2017-05-15T11:38:29.401Z,37.48
2017-05-15T11:39:29.238Z,37.57
2017-05-15T11:40:29.261Z,37.79
2017-05-15T11:41:29.292Z,37.4
2017-05-15T11:42:29.320Z,36.54
2017-05-15T11:43:29.601Z,36.06
2017-05-15T11:44:29.110Z,36.06
2017-05-15T11:45:29.411Z,36.06
2017-05-15T11:46:29.440Z,35.11
2017-05-15T11:47:29.460Z,35.11
2017-05-15T11:48:29.695Z,35.32
2017-05-15T11:49:29.529Z,35.22
2017-05-15T11:50:29.293Z,34.17
2017-05-15T11:51:29.592Z,34.36
2017-05-15T11:52:29.621Z,34.09
2017-05-15T11:53:29.792Z,34.19
2017-05-15T11:54:29.681Z,33.9
2017-05-15T11:55:29.714Z,33.9
2017-05-15T11:56:29.427Z,33.12
2017-05-15T11:57:29.775Z,33.43
2017-05-15T11:58:30.101Z,33.33
2017-05-15T11:59:29.521Z,33.33
2017-05-15T12:00:29.551Z,32.45
2017-05-15T12:01:29.904Z,33.33
2017-05-15T12:02:29.933Z,33.06
2017-05-15T12:03:30.160Z,32.47
2017-05-15T12:04:29.988Z,32.37
2017-05-15T12:05:30.022Z,32.59
2017-05-15T12:06:29.743Z,32.1
2017-05-15T12:07:30.084Z,32.1
2017-05-15T12:08:30.318Z,31.73
2017-05-15T12:09:29.834Z,31.43
2017-05-15T12:10:30.178Z,31.34
2017-05-15T12:11:30.211Z,30.55
2017-05-15T12:12:30.239Z,30.67
2017-05-15T12:13:30.529Z,30.87
2017-05-15T12:14:30.306Z,30.28
2017-05-15T12:15:30.337Z,30.57
2017-05-15T12:16:30.370Z,30.77
2017-05-15T12:17:30.400Z,30.77
2017-05-15T12:18:30.371Z,30.28
2017-05-15T12:19:30.474Z,29.81
2017-05-15T12:20:30.501Z,29.71
2017-05-15T12:21:30.527Z,29.03
2017-05-15T12:22:30.251Z,28.55
2017-05-15T12:23:30.803Z,28.45
2017-05-15T12:24:30.628Z,28.65
2017-05-15T12:25:30.658Z,28.75
2017-05-15T12:26:30.689Z,27.98
2017-05-15T12:27:30.728Z,27.87
2017-05-15T12:28:31.011Z,28.65
2017-05-15T12:29:30.477Z,27.97
2017-05-15T12:30:30.825Z,28.28
2017-05-15T12:31:30.854Z,28.16
2017-05-15T12:32:30.574Z,28.55
2017-05-15T12:33:30.607Z,28.45
2017-05-15T12:34:30.953Z,28.55
2017-05-15T12:35:30.989Z,28.65
2017-05-15T12:36:31.018Z,28.55
2017-05-15T12:37:30.739Z,28.55
2017-05-15T12:38:31.083Z,28.26
2017-05-15T12:39:31.112Z,28.36
2017-05-15T12:40:31.145Z,28.36
2017-05-15T12:41:30.873Z,28.83
2017-05-15T12:42:31.214Z,29.52
2017-05-15T12:43:31.247Z,28.83
2017-05-15T12:44:31.277Z,28.93
2017-05-15T12:45:31.313Z,29.03
2017-05-15T12:46:31.350Z,28.74
2017-05-15T12:47:31.375Z,29.71
2017-05-15T12:48:31.402Z,28.83
2017-05-15T12:49:31.442Z,28.64
2017-05-15T12:50:31.468Z,28.55
2017-05-15T12:51:31.185Z,28.54
2017-05-15T12:52:31.534Z,28.94
2017-05-15T12:53:31.567Z,28.55
2017-05-15T12:54:31.599Z,28.65
2017-05-15T12:55:31.632Z,29.04
2017-05-15T12:56:31.676Z,29.22
2017-05-15T12:57:31.699Z,29.52
2017-05-15T12:58:31.731Z,29.61
2017-05-15T12:59:31.764Z,29.69
2017-05-15T13:00:31.796Z,29.6